createdAt,value
2019-03-13T00:00:34.787Z,19.00
2019-03-13T00:03:03.432Z,18.20
2019-03-13T00:05:31.857Z,21.30
2019-03-13T00:08:00.338Z,20.30
2019-03-13T00:10:28.791Z,18.90
2019-03-13T00:12:57.272Z,21.50
2019-03-13T00:15:25.799Z,20.40
2019-03-13T00:17:54.479Z,20.60
2019-03-13T00:20:22.946Z,20.90
2019-03-13T00:22:51.399Z,20.10
2019-03-13T00:25:20.144Z,20.60
2019-03-13T00:27:48.885Z,21.40
2019-03-13T00:30:17.585Z,22.70
2019-03-13T00:32:46.321Z,23.00
2019-03-13T00:35:14.816Z,22.30
2019-03-13T00:37:43.463Z,23.70
2019-03-13T00:40:12.398Z,23.50
2019-03-13T00:42:40.854Z,24.50
2019-03-13T00:45:11.368Z,24.20
2019-03-13T00:47:39.840Z,24.80
2019-03-13T00:50:11.109Z,25.40
2019-03-13T00:52:39.573Z,26.00
2019-03-13T00:55:08.398Z,26.60
2019-03-13T00:57:36.868Z,27.10
2019-03-13T01:00:08.538Z,27.70
2019-03-13T01:02:41.757Z,27.90
2019-03-13T01:05:12.225Z,30.00
2019-03-13T01:07:40.681Z,30.00
2019-03-13T01:10:09.898Z,29.40
2019-03-13T01:12:38.579Z,30.40
2019-03-13T01:15:09.115Z,26.60
2019-03-13T01:17:39.180Z,23.90
2019-03-13T01:20:09.571Z,23.50
2019-03-13T01:22:38.004Z,19.40
2019-03-13T01:25:09.445Z,17.60
2019-03-13T01:27:37.855Z,16.50
2019-03-13T01:30:12.021Z,16.00
2019-03-13T01:32:50.740Z,16.00
2019-03-13T01:35:20.817Z,16.60
2019-03-13T01:37:49.301Z,17.20
2019-03-13T01:40:17.705Z,18.20
2019-03-13T01:42:46.131Z,19.10
2019-03-13T01:45:14.714Z,19.50
2019-03-13T01:47:43.301Z,20.10
2019-03-13T01:50:12.791Z,20.30
2019-03-13T01:52:41.233Z,19.90
2019-03-13T01:55:10.635Z,20.10
2019-03-13T01:57:39.282Z,20.40
2019-03-13T02:00:13.549Z,20.20
2019-03-13T02:02:41.975Z,20.00
2019-03-13T02:05:10.463Z,20.00
2019-03-13T02:07:38.881Z,20.00
2019-03-13T02:10:10.370Z,20.00
2019-03-13T02:12:38.862Z,20.30
2019-03-13T02:15:10.123Z,20.60
2019-03-13T02:17:38.584Z,20.80
2019-03-13T02:20:09.034Z,21.30
2019-03-13T02:22:37.680Z,21.50
2019-03-13T02:25:09.453Z,22.50
2019-03-13T02:27:37.877Z,22.70
2019-03-13T02:30:17.703Z,23.10
2019-03-13T02:32:46.122Z,23.30
2019-03-13T02:35:14.776Z,23.20
2019-03-13T02:37:43.301Z,23.40
2019-03-13T02:40:14.326Z,23.40
2019-03-13T02:42:42.960Z,23.80
2019-03-13T02:45:15.470Z,24.30
2019-03-13T02:47:43.942Z,25.50
2019-03-13T02:50:14.915Z,26.10
2019-03-13T02:52:43.485Z,27.20
2019-03-13T02:55:12.286Z,28.50
2019-03-13T02:57:40.740Z,30.00
2019-03-13T03:00:15.707Z,31.40
2019-03-13T03:02:48.684Z,33.00
2019-03-13T03:05:17.255Z,35.20
2019-03-13T03:07:46.198Z,40.60
2019-03-13T03:10:14.729Z,49.20
2019-03-13T03:12:43.157Z,56.30
2019-03-13T03:15:16.582Z,64.80
2019-03-13T03:17:45.033Z,71.10
2019-03-13T03:20:19.052Z,76.00
2019-03-13T03:22:47.777Z,77.80
2019-03-13T03:25:17.827Z,79.10
2019-03-13T03:27:46.342Z,80.80
2019-03-13T03:30:23.145Z,82.10
2019-03-13T03:32:51.787Z,82.20
2019-03-13T03:35:20.264Z,83.20
2019-03-13T03:37:48.758Z,80.90
2019-03-13T03:40:22.880Z,81.20
2019-03-13T03:42:50.923Z,81.40
2019-03-13T03:45:19.649Z,79.30
2019-03-13T03:47:48.163Z,79.40
2019-03-13T03:50:17.350Z,80.40
2019-03-13T03:52:46.239Z,80.80
2019-03-13T03:55:17.897Z,78.80
2019-03-13T03:57:46.623Z,78.70
2019-03-13T04:00:16.842Z,77.90
2019-03-13T04:02:45.271Z,77.00
2019-03-13T04:05:14.547Z,77.00
2019-03-13T04:07:43.048Z,77.00
2019-03-13T04:10:12.976Z,76.20
2019-03-13T04:12:41.463Z,75.60
2019-03-13T04:15:11.491Z,75.40
2019-03-13T04:17:40.129Z,75.50
2019-03-13T04:20:18.377Z,75.30
2019-03-13T04:22:47.084Z,75.40
2019-03-13T04:25:26.852Z,75.50
2019-03-13T04:27:55.566Z,74.80
2019-03-13T04:30:24.029Z,75.40
2019-03-13T04:32:52.458Z,74.80
2019-03-13T04:35:20.947Z,74.20
2019-03-13T04:37:49.361Z,73.30
2019-03-13T04:40:17.995Z,72.70
2019-03-13T04:42:46.701Z,72.90
2019-03-13T04:45:15.213Z,73.20
2019-03-13T04:47:43.866Z,73.10
2019-03-13T04:50:15.829Z,73.40
2019-03-13T04:52:44.285Z,73.30
2019-03-13T04:55:15.108Z,73.50
2019-03-13T04:57:43.819Z,74.00
2019-03-13T05:00:17.609Z,73.30
2019-03-13T05:02:46.021Z,73.60
2019-03-13T05:05:37.279Z,73.50
2019-03-13T05:08:05.693Z,73.90
2019-03-13T05:10:34.970Z,73.90
2019-03-13T05:13:03.769Z,73.80
2019-03-13T05:15:32.352Z,73.90
2019-03-13T05:18:00.995Z,74.10
2019-03-13T05:20:29.498Z,74.40
2019-03-13T05:22:57.986Z,74.30
2019-03-13T05:25:26.650Z,75.20
2019-03-13T05:27:55.104Z,74.50
2019-03-13T05:30:23.539Z,74.80
2019-03-13T05:32:51.950Z,75.10
2019-03-13T05:35:20.597Z,75.10
2019-03-13T05:37:49.605Z,74.50
2019-03-13T05:40:18.075Z,74.50
2019-03-13T05:42:46.490Z,75.60
2019-03-13T05:45:14.914Z,78.10
2019-03-13T05:47:43.330Z,81.30
2019-03-13T05:50:12.213Z,83.20
2019-03-13T05:52:40.637Z,84.80
2019-03-13T05:55:09.337Z,87.40
2019-03-13T05:57:37.790Z,90.00
2019-03-13T06:00:09.631Z,90.90
2019-03-13T06:02:38.292Z,91.90
2019-03-13T06:05:08.072Z,92.50
2019-03-13T06:07:36.714Z,93.50
2019-03-13T06:10:15.463Z,94.00
2019-03-13T06:12:43.894Z,94.50
2019-03-13T06:15:16.135Z,94.70
2019-03-13T06:17:44.662Z,95.00
2019-03-13T06:20:17.308Z,95.30
2019-03-13T06:22:45.718Z,95.40
2019-03-13T06:25:14.655Z,95.40
2019-03-13T06:27:46.048Z,95.50
2019-03-13T06:30:18.168Z,95.80
2019-03-13T06:32:46.610Z,96.20
2019-03-13T06:35:15.467Z,96.00
2019-03-13T06:37:43.923Z,96.10
2019-03-13T06:40:15.162Z,96.40
2019-03-13T06:42:43.591Z,96.60
2019-03-13T06:45:14.062Z,96.70
2019-03-13T06:47:42.478Z,96.80
2019-03-13T06:50:13.993Z,97.00
2019-03-13T06:52:42.405Z,97.00
2019-03-13T06:55:10.815Z,97.10
2019-03-13T06:57:39.503Z,97.20
2019-03-13T07:00:21.138Z,97.20
2019-03-13T07:02:51.200Z,97.20
2019-03-13T07:05:21.262Z,96.90
2019-03-13T07:08:03.371Z,97.10
2019-03-13T07:10:39.198Z,96.80
2019-03-13T07:13:11.971Z,96.60
2019-03-13T07:15:53.967Z,96.40
2019-03-13T07:18:26.742Z,96.40
2019-03-13T07:20:56.814Z,96.20
2019-03-13T07:23:26.870Z,96.10
2019-03-13T07:26:05.738Z,95.80
2019-03-13T07:28:38.750Z,95.20
2019-03-13T07:31:24.967Z,93.80
2019-03-13T07:34:11.634Z,93.20
2019-03-13T07:36:50.883Z,92.60
2019-03-13T07:39:39.017Z,92.00
2019-03-13T07:42:25.397Z,90.70
2019-03-13T07:44:55.715Z,90.20
2019-03-13T07:47:28.935Z,89.50
2019-03-13T07:50:09.578Z,89.00
2019-03-13T07:52:57.743Z,88.20
2019-03-13T07:55:28.063Z,88.10
2019-03-13T07:58:07.504Z,86.60
2019-03-13T08:00:37.839Z,85.40
2019-03-13T08:03:07.903Z,85.50
2019-03-13T08:05:56.459Z,84.40
2019-03-13T08:08:29.442Z,83.90
2019-03-13T08:11:15.866Z,83.20
2019-03-13T08:13:51.876Z,82.40
2019-03-13T08:16:24.373Z,81.20
2019-03-13T08:18:54.685Z,78.60
2019-03-13T08:21:41.200Z,77.80
2019-03-13T08:24:19.909Z,77.80
2019-03-13T08:26:49.975Z,77.70
2019-03-13T08:29:25.888Z,76.80
2019-03-13T08:32:04.922Z,75.40
2019-03-13T08:34:40.763Z,75.70
2019-03-13T08:37:27.393Z,75.00
2019-03-13T08:40:03.059Z,74.50
2019-03-13T08:42:36.091Z,73.90
2019-03-13T08:45:17.788Z,71.50
2019-03-13T08:47:50.993Z,69.90
2019-03-13T08:50:24.266Z,67.90
2019-03-13T08:52:57.052Z,65.80
2019-03-13T08:55:39.542Z,65.00
2019-03-13T08:58:09.908Z,63.50
2019-03-13T09:00:45.462Z,63.40
2019-03-13T09:03:15.535Z,60.50
2019-03-13T09:06:00.238Z,56.30
2019-03-13T09:08:30.546Z,52.50
2019-03-13T09:11:03.400Z,47.30
2019-03-13T09:13:36.715Z,44.80
2019-03-13T09:16:06.810Z,38.80
2019-03-13T09:18:42.645Z,36.00
2019-03-13T09:21:15.282Z,34.60
2019-03-13T09:23:45.431Z,30.00
2019-03-13T09:26:31.507Z,27.90
2019-03-13T09:29:13.593Z,25.00
2019-03-13T09:31:59.975Z,24.80
2019-03-13T09:34:33.099Z,22.30
2019-03-13T09:37:03.213Z,20.10
2019-03-13T09:39:33.293Z,17.60
2019-03-13T09:42:19.595Z,14.50
2019-03-13T09:44:49.667Z,13.80
2019-03-13T09:47:38.335Z,12.30
2019-03-13T09:50:26.302Z,12.40
2019-03-13T09:52:56.364Z,11.60
2019-03-13T09:55:51.899Z,12.70
2019-03-13T09:58:38.057Z,11.70
2019-03-13T10:01:23.149Z,11.30
2019-03-13T10:03:53.211Z,10.80
2019-03-13T10:06:39.715Z,9.30
2019-03-13T10:09:12.866Z,10.20
2019-03-13T10:11:58.225Z,11.80
2019-03-13T10:14:28.416Z,13.80
2019-03-13T10:17:09.913Z,14.90
2019-03-13T10:19:46.474Z,15.10
2019-03-13T10:22:16.699Z,16.20
2019-03-13T10:25:03.423Z,18.50
2019-03-13T10:27:39.575Z,20.30
2019-03-13T10:30:21.490Z,20.40
2019-03-13T10:32:54.479Z,21.80
2019-03-13T10:35:36.631Z,22.30
2019-03-13T10:38:21.729Z,23.80
2019-03-13T10:40:51.801Z,24.60
2019-03-13T10:43:21.869Z,26.20
2019-03-13T10:46:04.229Z,23.20
2019-03-13T10:48:43.273Z,19.40
2019-03-13T10:51:13.355Z,15.30
2019-03-13T10:53:52.456Z,15.70
2019-03-13T10:56:41.057Z,16.30
2019-03-13T10:59:27.467Z,15.00
2019-03-13T11:02:09.556Z,16.30
2019-03-13T11:04:48.687Z,17.10
2019-03-13T11:07:36.568Z,16.00
2019-03-13T11:10:10.104Z,13.70
2019-03-13T11:12:43.218Z,14.20
2019-03-13T11:15:13.436Z,13.80
2019-03-13T11:17:43.507Z,15.00
2019-03-13T11:20:25.359Z,16.30
2019-03-13T11:22:55.431Z,15.90
2019-03-13T11:25:28.207Z,16.00
2019-03-13T11:28:04.179Z,24.90
2019-03-13T11:30:37.326Z,34.40
2019-03-13T11:33:13.579Z,43.80
2019-03-13T11:35:49.620Z,51.60
2019-03-13T11:38:34.923Z,52.70
2019-03-13T11:41:17.127Z,43.80
2019-03-13T11:43:48.455Z,39.20
2019-03-13T11:46:33.284Z,35.30
2019-03-13T11:49:03.384Z,33.80
2019-03-13T11:51:42.431Z,31.20
2019-03-13T11:54:15.443Z,31.60
2019-03-13T11:56:57.394Z,33.50
2019-03-13T11:59:30.299Z,34.50
2019-03-13T12:02:06.507Z,35.10
2019-03-13T12:04:55.174Z,32.30
2019-03-13T12:07:43.720Z,31.30
2019-03-13T12:10:20.055Z,30.50
2019-03-13T12:13:04.928Z,28.60
2019-03-13T12:15:34.991Z,24.00
2019-03-13T12:18:05.068Z,20.40
2019-03-13T12:20:44.277Z,16.40
2019-03-13T12:23:14.602Z,14.50
2019-03-13T12:25:47.524Z,13.30
2019-03-13T12:28:17.596Z,14.40
2019-03-13T12:30:53.083Z,13.60
2019-03-13T12:33:23.424Z,11.80
2019-03-13T12:36:10.330Z,11.60
2019-03-13T12:38:52.649Z,12.70
2019-03-13T12:41:22.749Z,15.40
2019-03-13T12:44:01.472Z,17.90
2019-03-13T12:46:40.461Z,20.20
2019-03-13T12:49:28.769Z,22.20
2019-03-13T12:52:01.548Z,25.00
2019-03-13T12:54:34.325Z,29.40
2019-03-13T12:57:07.319Z,33.20
2019-03-13T12:59:46.367Z,35.00
2019-03-13T13:02:25.195Z,32.30
2019-03-13T13:05:13.552Z,29.00
2019-03-13T13:07:46.550Z,24.50
2019-03-13T13:10:33.387Z,18.00
2019-03-13T13:13:18.495Z,17.30
2019-03-13T13:15:48.601Z,15.80
2019-03-13T13:18:33.927Z,14.00
2019-03-13T13:21:02.471Z,14.50
2019-03-13T13:23:31.116Z,13.00
2019-03-13T13:25:59.825Z,12.80
2019-03-13T13:28:28.467Z,13.60
2019-03-13T13:30:56.915Z,13.50
2019-03-13T13:33:25.343Z,13.00
2019-03-13T13:35:53.759Z,14.30
2019-03-13T13:38:22.190Z,19.20
2019-03-13T13:40:50.876Z,30.50
2019-03-13T13:43:19.519Z,36.20
2019-03-13T13:45:51.194Z,34.30
2019-03-13T13:48:19.687Z,30.80
2019-03-13T13:50:48.371Z,28.70
2019-03-13T13:53:16.791Z,29.60
2019-03-13T13:55:45.242Z,29.20
2019-03-13T13:58:13.665Z,33.00
2019-03-13T14:00:42.097Z,38.20
2019-03-13T14:03:10.512Z,41.50
2019-03-13T14:05:40.906Z,46.10
2019-03-13T14:08:09.172Z,50.50
2019-03-13T14:10:37.628Z,54.20
2019-03-13T14:13:06.282Z,56.00
2019-03-13T14:15:34.803Z,48.00
2019-03-13T14:18:03.472Z,43.80
2019-03-13T14:20:31.903Z,36.90
2019-03-13T14:23:00.327Z,36.20
2019-03-13T14:25:28.768Z,34.30
2019-03-13T14:27:57.197Z,35.70
2019-03-13T14:30:25.754Z,34.60
2019-03-13T14:32:54.173Z,34.30
2019-03-13T14:35:22.611Z,36.70
2019-03-13T14:37:51.035Z,39.50
2019-03-13T14:40:20.211Z,41.70
2019-03-13T14:42:48.634Z,44.80
2019-03-13T14:45:20.443Z,47.10
2019-03-13T14:47:48.862Z,49.00
2019-03-13T14:50:21.679Z,51.00
2019-03-13T14:52:50.114Z,51.70
2019-03-13T14:55:19.179Z,54.30
2019-03-13T14:57:47.698Z,61.10
2019-03-13T15:00:23.235Z,66.80
2019-03-13T15:02:51.900Z,71.30
2019-03-13T15:05:20.467Z,76.50
2019-03-13T15:07:49.055Z,79.70
2019-03-13T15:10:21.391Z,82.30
2019-03-13T15:12:49.902Z,85.50
2019-03-13T15:15:19.842Z,88.70
2019-03-13T15:17:48.335Z,90.60
2019-03-13T15:20:24.336Z,91.60
2019-03-13T15:22:52.961Z,92.60
2019-03-13T15:25:21.768Z,93.40
2019-03-13T15:27:51.282Z,93.10
2019-03-13T15:30:28.086Z,92.20
2019-03-13T15:32:56.551Z,92.10
2019-03-13T15:35:25.104Z,92.60
2019-03-13T15:37:53.636Z,92.70
2019-03-13T15:40:22.318Z,93.50
2019-03-13T15:42:50.808Z,91.90
2019-03-13T15:45:35.445Z,90.60
2019-03-13T15:48:03.936Z,90.00
2019-03-13T15:50:32.378Z,87.70
2019-03-13T15:53:01.162Z,87.50
2019-03-13T15:55:29.576Z,85.10
2019-03-13T15:57:58.084Z,84.70
2019-03-13T16:00:31.070Z,83.40
2019-03-13T16:02:59.767Z,83.30
2019-03-13T16:05:28.198Z,82.60
2019-03-13T16:07:56.634Z,84.00
2019-03-13T16:10:25.060Z,81.60
2019-03-13T16:12:55.142Z,79.00
2019-03-13T16:15:40.943Z,79.50
2019-03-13T16:18:10.369Z,77.20
2019-03-13T16:20:38.795Z,76.20
2019-03-13T16:23:07.494Z,75.80
2019-03-13T16:25:35.917Z,75.80
2019-03-13T16:28:04.648Z,75.10
2019-03-13T16:30:34.824Z,75.00
2019-03-13T16:33:03.251Z,75.00
2019-03-13T16:35:31.675Z,75.00
2019-03-13T16:38:00.121Z,74.90
2019-03-13T16:40:31.595Z,75.00
2019-03-13T16:42:58.940Z,74.80
2019-03-13T16:45:27.432Z,74.70
2019-03-13T16:47:55.876Z,74.70
2019-03-13T16:50:29.183Z,77.20
2019-03-13T16:52:57.910Z,81.90
2019-03-13T16:55:26.776Z,83.50
2019-03-13T16:57:55.261Z,86.20
2019-03-13T17:00:27.866Z,84.80
2019-03-13T17:02:56.574Z,84.60
2019-03-13T17:05:25.157Z,83.80
2019-03-13T17:07:53.725Z,83.50
2019-03-13T17:10:25.304Z,84.10
2019-03-13T17:12:53.738Z,83.70
2019-03-13T17:15:23.420Z,83.60
2019-03-13T17:17:52.550Z,82.60
2019-03-13T17:20:35.500Z,82.00
2019-03-13T17:23:04.264Z,81.60
2019-03-13T17:25:32.720Z,80.00
2019-03-13T17:28:01.209Z,79.90
2019-03-13T17:30:31.449Z,78.30
2019-03-13T17:33:00.094Z,78.50
2019-03-13T17:35:28.626Z,78.50
2019-03-13T17:37:57.135Z,78.40
2019-03-13T17:40:30.599Z,78.60
2019-03-13T17:42:59.050Z,77.70
2019-03-13T17:45:27.612Z,78.50
2019-03-13T17:47:56.051Z,78.20
2019-03-13T17:50:25.103Z,78.40
2019-03-13T17:52:54.267Z,79.20
2019-03-13T17:55:24.544Z,79.20
2019-03-13T17:57:53.144Z,79.30
2019-03-13T18:00:49.880Z,78.90
2019-03-13T18:03:18.626Z,78.50
2019-03-13T18:05:47.118Z,78.90
2019-03-13T18:08:15.680Z,78.60
2019-03-13T18:10:44.111Z,78.50
2019-03-13T18:13:12.562Z,78.90
2019-03-13T18:15:41.206Z,79.20
2019-03-13T18:18:10.008Z,79.80
2019-03-13T18:20:38.475Z,79.40
2019-03-13T18:23:08.928Z,79.60
2019-03-13T18:25:37.437Z,79.80
2019-03-13T18:28:06.007Z,79.90
2019-03-13T18:30:35.519Z,80.10
2019-03-13T18:33:04.173Z,80.10
2019-03-13T18:35:32.604Z,79.90
2019-03-13T18:38:01.992Z,80.00
2019-03-13T18:40:30.420Z,80.10
2019-03-13T18:42:59.159Z,80.00
2019-03-13T18:45:37.276Z,80.40
2019-03-13T18:48:05.995Z,80.50
2019-03-13T18:50:34.527Z,79.70
2019-03-13T18:53:02.985Z,79.60
2019-03-13T18:55:33.160Z,79.80
2019-03-13T18:58:01.696Z,79.70
2019-03-13T19:00:37.332Z,80.00
2019-03-13T19:03:07.676Z,79.80
2019-03-13T19:05:37.366Z,79.80
2019-03-13T19:08:06.305Z,80.00
2019-03-13T19:10:34.877Z,79.80
2019-03-13T19:13:03.391Z,79.60
2019-03-13T19:15:32.135Z,79.60
2019-03-13T19:18:01.279Z,79.50
2019-03-13T19:20:31.606Z,79.60
2019-03-13T19:23:00.335Z,79.40
2019-03-13T19:25:28.870Z,79.20
2019-03-13T19:27:57.312Z,79.00
2019-03-13T19:30:31.415Z,79.00
2019-03-13T19:33:00.374Z,78.60
2019-03-13T19:35:29.075Z,78.60
2019-03-13T19:38:00.782Z,77.80
2019-03-13T19:40:29.587Z,77.80
2019-03-13T19:42:58.346Z,77.60
2019-03-13T19:45:29.624Z,77.60
2019-03-13T19:48:01.133Z,77.20
2019-03-13T19:50:28.695Z,77.50
2019-03-13T19:52:57.084Z,77.20
2019-03-13T19:55:25.515Z,77.10
2019-03-13T19:57:53.930Z,76.90
2019-03-13T20:00:25.482Z,77.10
2019-03-13T20:03:00.797Z,76.50
2019-03-13T20:05:29.470Z,76.50
2019-03-13T20:07:57.889Z,76.20
2019-03-13T20:10:28.015Z,76.10
2019-03-13T20:12:56.599Z,75.80
2019-03-13T20:15:29.756Z,75.20
2019-03-13T20:17:58.266Z,75.50
2019-03-13T20:20:26.906Z,75.00
2019-03-13T20:23:00.679Z,74.80
2019-03-13T20:25:29.338Z,74.60
2019-03-13T20:27:57.814Z,74.40
2019-03-13T20:30:27.141Z,74.20
2019-03-13T20:32:55.561Z,73.90
2019-03-13T20:35:24.285Z,73.50
2019-03-13T20:37:52.998Z,73.30
2019-03-13T20:40:28.197Z,73.10
2019-03-13T20:42:56.674Z,72.00
2019-03-13T20:45:30.060Z,71.60
2019-03-13T20:47:58.606Z,71.30
2019-03-13T20:50:36.804Z,70.90
2019-03-13T20:52:57.570Z,70.80
2019-03-13T20:55:26.205Z,71.20
2019-03-13T20:57:54.657Z,71.20
2019-03-13T21:00:27.423Z,70.60
2019-03-13T21:02:56.778Z,70.60
2019-03-13T21:05:25.450Z,70.90
2019-03-13T21:07:54.232Z,72.70
2019-03-13T21:10:22.939Z,73.60
2019-03-13T21:12:51.414Z,74.00
2019-03-13T21:15:29.402Z,74.10
2019-03-13T21:17:58.123Z,74.70
2019-03-13T21:20:26.726Z,74.40
2019-03-13T21:22:58.049Z,74.90
2019-03-13T21:25:26.549Z,76.20
2019-03-13T21:27:55.189Z,78.10
2019-03-13T21:30:28.496Z,80.40
2019-03-13T21:32:57.329Z,81.80
2019-03-13T21:35:25.849Z,83.90
2019-03-13T21:37:54.534Z,84.70
2019-03-13T21:40:27.151Z,84.70
2019-03-13T21:42:55.948Z,85.10
2019-03-13T21:45:24.413Z,85.20
2019-03-13T21:47:53.164Z,85.80
2019-03-13T21:50:22.607Z,85.70
2019-03-13T21:52:51.098Z,86.00
2019-03-13T21:55:20.260Z,85.70
2019-03-13T21:57:51.620Z,86.50
2019-03-13T22:00:24.190Z,86.40
2019-03-13T22:02:52.758Z,86.60
2019-03-13T22:05:26.168Z,86.50
2019-03-13T22:07:51.716Z,86.40
2019-03-13T22:10:21.435Z,86.50
2019-03-13T22:12:50.804Z,86.70
2019-03-13T22:15:20.898Z,86.40
2019-03-13T22:17:49.408Z,86.70
2019-03-13T22:20:19.120Z,87.50
2019-03-13T22:22:47.967Z,88.30
2019-03-13T22:25:20.634Z,89.10
2019-03-13T22:27:49.143Z,89.30
2019-03-13T22:30:23.007Z,89.60
2019-03-13T22:32:51.871Z,89.90
2019-03-13T22:35:20.297Z,89.50
2019-03-13T22:37:48.873Z,89.40
2019-03-13T22:40:18.799Z,89.40
2019-03-13T22:42:47.299Z,89.30
2019-03-13T22:45:17.166Z,89.10
2019-03-13T22:47:45.844Z,89.50
2019-03-13T22:50:19.044Z,89.50
2019-03-13T22:52:47.545Z,90.00
2019-03-13T22:55:16.343Z,89.80
2019-03-13T22:57:44.806Z,89.80
2019-03-13T23:00:30.128Z,90.00
2019-03-13T23:02:58.666Z,90.10
2019-03-13T23:05:27.343Z,90.20
2019-03-13T23:07:55.780Z,90.30
2019-03-13T23:10:32.355Z,90.30
2019-03-13T23:13:01.004Z,90.20
2019-03-13T23:15:29.529Z,90.10
2019-03-13T23:17:58.026Z,90.00
2019-03-13T23:20:26.514Z,89.90
2019-03-13T23:22:54.946Z,89.60
2019-03-13T23:25:23.448Z,89.50
2019-03-13T23:27:51.873Z,88.70
2019-03-13T23:30:20.358Z,88.90
2019-03-13T23:32:48.778Z,88.60
2019-03-13T23:35:17.208Z,88.60
2019-03-13T23:37:45.893Z,88.20
2019-03-13T23:40:14.320Z,88.10
2019-03-13T23:42:42.991Z,87.90
2019-03-13T23:45:11.643Z,87.90
2019-03-13T23:47:40.075Z,87.70
2019-03-13T23:50:10.434Z,87.70
2019-03-13T23:52:38.880Z,88.60
2019-03-13T23:55:08.586Z,88.90
2019-03-13T23:57:37.002Z,89.20
